sensor_id;sensor_type;location;lat;lon;timestamp;P1;durP1;ratioP1;P2;durP2;ratioP2
52031;SDS011;38044;45.148;39.604;2023-05-10T00:01:33;10.18;;;6.57;;
52031;SDS011;38044;45.148;39.604;2023-05-10T00:03:59;8.95;;;5.95;;
52031;SDS011;38044;45.148;39.604;2023-05-10T00:06:24;9.27;;;6.00;;
52031;SDS011;38044;45.148;39.604;2023-05-10T00:08:50;8.43;;;5.22;;
52031;SDS011;38044;45.148;39.604;2023-05-10T00:11:16;8.77;;;5.88;;
52031;SDS011;38044;45.148;39.604;2023-05-10T00:13:42;7.80;;;5.32;;
52031;SDS011;38044;45.148;39.604;2023-05-10T00:16:08;8.45;;;6.13;;
52031;SDS011;38044;45.148;39.604;2023-05-10T00:18:34;9.60;;;5.43;;
52031;SDS011;38044;45.148;39.604;2023-05-10T00:20:59;7.28;;;5.45;;
52031;SDS011;38044;45.148;39.604;2023-05-10T00:23:25;6.78;;;5.07;;
52031;SDS011;38044;45.148;39.604;2023-05-10T00:25:51;8.38;;;5.28;;
52031;SDS011;38044;45.148;39.604;2023-05-10T00:28:17;6.97;;;4.97;;
52031;SDS011;38044;45.148;39.604;2023-05-10T00:30:43;6.25;;;4.45;;
52031;SDS011;38044;45.148;39.604;2023-05-10T00:33:08;7.20;;;5.20;;
52031;SDS011;38044;45.148;39.604;2023-05-10T00:35:34;6.25;;;4.82;;
52031;SDS011;38044;45.148;39.604;2023-05-10T00:38:01;6.85;;;5.13;;
52031;SDS011;38044;45.148;39.604;2023-05-10T00:40:26;7.93;;;5.75;;
52031;SDS011;38044;45.148;39.604;2023-05-10T00:42:53;7.53;;;5.60;;
52031;SDS011;38044;45.148;39.604;2023-05-10T00:45:19;10.15;;;6.25;;
52031;SDS011;38044;45.148;39.604;2023-05-10T00:47:45;9.20;;;6.35;;
52031;SDS011;38044;45.148;39.604;2023-05-10T00:50:11;9.82;;;7.53;;
52031;SDS011;38044;45.148;39.604;2023-05-10T00:52:37;9.90;;;7.47;;
52031;SDS011;38044;45.148;39.604;2023-05-10T00:55:03;10.77;;;7.32;;
52031;SDS011;38044;45.148;39.604;2023-05-10T00:57:30;10.38;;;7.45;;
52031;SDS011;38044;45.148;39.604;2023-05-10T00:59:56;9.52;;;7.05;;
52031;SDS011;38044;45.148;39.604;2023-05-10T01:02:23;12.25;;;7.50;;
52031;SDS011;38044;45.148;39.604;2023-05-10T01:04:49;8.80;;;7.20;;
52031;SDS011;38044;45.148;39.604;2023-05-10T01:07:15;7.97;;;6.40;;
52031;SDS011;38044;45.148;39.604;2023-05-10T01:09:41;8.90;;;7.10;;
52031;SDS011;38044;45.148;39.604;2023-05-10T01:12:07;11.73;;;7.38;;
52031;SDS011;38044;45.148;39.604;2023-05-10T01:14:33;8.48;;;6.43;;
52031;SDS011;38044;45.148;39.604;2023-05-10T01:17:01;7.65;;;6.10;;
52031;SDS011;38044;45.148;39.604;2023-05-10T01:19:28;7.47;;;5.93;;
52031;SDS011;38044;45.148;39.604;2023-05-10T01:24:44;6.90;;;4.90;;
52031;SDS011;38044;45.148;39.604;2023-05-10T01:27:33;6.05;;;4.57;;
52031;SDS011;38044;45.148;39.604;2023-05-10T01:31:16;5.22;;;4.15;;
52031;SDS011;38044;45.148;39.604;2023-05-10T01:33:59;4.40;;;3.42;;
52031;SDS011;38044;45.148;39.604;2023-05-10T01:36:32;4.63;;;3.80;;
52031;SDS011;38044;45.148;39.604;2023-05-10T01:41:42;5.25;;;4.30;;
52031;SDS011;38044;45.148;39.604;2023-05-10T01:44:31;4.70;;;4.20;;
52031;SDS011;38044;45.148;39.604;2023-05-10T01:47:07;6.15;;;4.70;;
52031;SDS011;38044;45.148;39.604;2023-05-10T01:49:41;6.25;;;4.80;;
52031;SDS011;38044;45.148;39.604;2023-05-10T01:52:18;6.78;;;4.43;;
52031;SDS011;38044;45.148;39.604;2023-05-10T01:54:55;6.30;;;5.00;;
52031;SDS011;38044;45.148;39.604;2023-05-10T01:57:27;6.50;;;4.93;;
52031;SDS011;38044;45.148;39.604;2023-05-10T02:00:02;5.82;;;4.88;;
52031;SDS011;38044;45.148;39.604;2023-05-10T02:02:33;5.68;;;4.78;;
52031;SDS011;38044;45.148;39.604;2023-05-10T02:05:05;8.57;;;5.25;;
52031;SDS011;38044;45.148;39.604;2023-05-10T02:07:36;6.40;;;5.07;;
52031;SDS011;38044;45.148;39.604;2023-05-10T02:10:02;7.57;;;5.05;;
52031;SDS011;38044;45.148;39.604;2023-05-10T02:12:39;9.85;;;5.30;;
52031;SDS011;38044;45.148;39.604;2023-05-10T02:15:07;7.60;;;5.05;;
52031;SDS011;38044;45.148;39.604;2023-05-10T02:17:37;6.97;;;5.32;;
52031;SDS011;38044;45.148;39.604;2023-05-10T02:20:04;6.88;;;5.45;;
52031;SDS011;38044;45.148;39.604;2023-05-10T02:22:31;6.10;;;4.95;;
52031;SDS011;38044;45.148;39.604;2023-05-10T02:24:59;7.65;;;4.72;;
52031;SDS011;38044;45.148;39.604;2023-05-10T02:27:27;6.90;;;4.85;;
52031;SDS011;38044;45.148;39.604;2023-05-10T02:29:54;6.72;;;4.70;;
52031;SDS011;38044;45.148;39.604;2023-05-10T02:32:22;8.05;;;4.43;;
52031;SDS011;38044;45.148;39.604;2023-05-10T02:34:50;7.03;;;5.28;;
52031;SDS011;38044;45.148;39.604;2023-05-10T02:37:18;7.32;;;5.30;;
52031;SDS011;38044;45.148;39.604;2023-05-10T02:39:47;6.85;;;5.10;;
52031;SDS011;38044;45.148;39.604;2023-05-10T02:42:18;6.35;;;4.80;;
52031;SDS011;38044;45.148;39.604;2023-05-10T02:44:48;6.47;;;5.18;;
52031;SDS011;38044;45.148;39.604;2023-05-10T02:47:18;8.05;;;5.63;;
52031;SDS011;38044;45.148;39.604;2023-05-10T02:49:44;7.95;;;6.00;;
52031;SDS011;38044;45.148;39.604;2023-05-10T02:52:10;7.95;;;5.88;;
52031;SDS011;38044;45.148;39.604;2023-05-10T02:54:45;9.45;;;6.28;;
52031;SDS011;38044;45.148;39.604;2023-05-10T02:57:18;9.25;;;6.32;;
52031;SDS011;38044;45.148;39.604;2023-05-10T02:59:51;6.97;;;5.63;;
52031;SDS011;38044;45.148;39.604;2023-05-10T03:02:17;6.55;;;5.18;;
52031;SDS011;38044;45.148;39.604;2023-05-10T03:04:43;7.60;;;5.90;;
52031;SDS011;38044;45.148;39.604;2023-05-10T03:07:09;7.13;;;5.35;;
52031;SDS011;38044;45.148;39.604;2023-05-10T03:09:35;7.05;;;5.68;;
52031;SDS011;38044;45.148;39.604;2023-05-10T03:12:07;9.43;;;7.10;;
52031;SDS011;38044;45.148;39.604;2023-05-10T03:14:57;7.35;;;5.97;;
52031;SDS011;38044;45.148;39.604;2023-05-10T03:17:31;7.78;;;6.40;;
52031;SDS011;38044;45.148;39.604;2023-05-10T03:20:08;8.18;;;6.70;;
52031;SDS011;38044;45.148;39.604;2023-05-10T03:22:37;6.38;;;5.18;;
52031;SDS011;38044;45.148;39.604;2023-05-10T03:25:06;6.68;;;5.00;;
52031;SDS011;38044;45.148;39.604;2023-05-10T03:27:36;5.90;;;4.75;;
52031;SDS011;38044;45.148;39.604;2023-05-10T03:30:04;7.97;;;5.00;;
52031;SDS011;38044;45.148;39.604;2023-05-10T03:32:32;5.32;;;4.30;;
52031;SDS011;38044;45.148;39.604;2023-05-10T03:34:59;6.22;;;4.30;;
52031;SDS011;38044;45.148;39.604;2023-05-10T03:37:26;4.93;;;3.80;;
52031;SDS011;38044;45.148;39.604;2023-05-10T03:39:52;4.90;;;3.72;;
52031;SDS011;38044;45.148;39.604;2023-05-10T03:42:18;5.03;;;4.10;;
52031;SDS011;38044;45.148;39.604;2023-05-10T03:44:43;5.30;;;4.28;;
52031;SDS011;38044;45.148;39.604;2023-05-10T03:47:09;7.22;;;3.78;;
52031;SDS011;38044;45.148;39.604;2023-05-10T03:49:35;6.43;;;3.60;;
52031;SDS011;38044;45.148;39.604;2023-05-10T03:52:00;5.63;;;3.85;;
52031;SDS011;38044;45.148;39.604;2023-05-10T03:54:26;7.45;;;4.00;;
52031;SDS011;38044;45.148;39.604;2023-05-10T03:56:52;4.40;;;3.65;;
52031;SDS011;38044;45.148;39.604;2023-05-10T03:59:18;4.43;;;3.60;;
52031;SDS011;38044;45.148;39.604;2023-05-10T04:01:44;5.63;;;3.92;;
52031;SDS011;38044;45.148;39.604;2023-05-10T04:04:09;5.60;;;3.70;;
52031;SDS011;38044;45.148;39.604;2023-05-10T04:06:35;5.00;;;3.83;;
52031;SDS011;38044;45.148;39.604;2023-05-10T04:09:03;4.90;;;3.80;;
52031;SDS011;38044;45.148;39.604;2023-05-10T04:11:29;4.28;;;3.42;;
52031;SDS011;38044;45.148;39.604;2023-05-10T04:13:55;3.85;;;3.17;;
52031;SDS011;38044;45.148;39.604;2023-05-10T04:16:21;3.72;;;3.10;;
52031;SDS011;38044;45.148;39.604;2023-05-10T04:18:48;5.20;;;3.22;;
52031;SDS011;38044;45.148;39.604;2023-05-10T04:21:14;4.28;;;3.20;;
52031;SDS011;38044;45.148;39.604;2023-05-10T04:23:40;5.05;;;3.60;;
52031;SDS011;38044;45.148;39.604;2023-05-10T04:26:06;5.38;;;3.55;;
52031;SDS011;38044;45.148;39.604;2023-05-10T04:28:32;4.45;;;3.65;;
52031;SDS011;38044;45.148;39.604;2023-05-10T04:31:07;3.95;;;3.28;;
52031;SDS011;38044;45.148;39.604;2023-05-10T04:33:35;4.32;;;3.50;;
52031;SDS011;38044;45.148;39.604;2023-05-10T04:36:01;4.63;;;3.83;;
52031;SDS011;38044;45.148;39.604;2023-05-10T04:38:28;3.67;;;3.05;;
52031;SDS011;38044;45.148;39.604;2023-05-10T04:40:54;4.32;;;3.05;;
52031;SDS011;38044;45.148;39.604;2023-05-10T04:43:20;5.03;;;3.38;;
52031;SDS011;38044;45.148;39.604;2023-05-10T04:45:45;6.47;;;3.40;;
52031;SDS011;38044;45.148;39.604;2023-05-10T04:48:11;4.22;;;3.35;;
52031;SDS011;38044;45.148;39.604;2023-05-10T04:50:37;4.30;;;3.80;;
52031;SDS011;38044;45.148;39.604;2023-05-10T04:53:04;3.92;;;3.28;;
52031;SDS011;38044;45.148;39.604;2023-05-10T04:55:30;4.57;;;2.97;;
52031;SDS011;38044;45.148;39.604;2023-05-10T04:57:56;4.60;;;3.50;;
52031;SDS011;38044;45.148;39.604;2023-05-10T05:00:22;4.90;;;3.38;;
52031;SDS011;38044;45.148;39.604;2023-05-10T05:02:48;4.55;;;3.65;;
52031;SDS011;38044;45.148;39.604;2023-05-10T05:05:14;4.97;;;3.30;;
52031;SDS011;38044;45.148;39.604;2023-05-10T05:07:40;5.03;;;3.20;;
52031;SDS011;38044;45.148;39.604;2023-05-10T05:10:06;5.00;;;3.58;;
52031;SDS011;38044;45.148;39.604;2023-05-10T05:12:33;5.82;;;3.40;;
52031;SDS011;38044;45.148;39.604;2023-05-10T05:15:00;4.68;;;3.38;;
52031;SDS011;38044;45.148;39.604;2023-05-10T05:17:26;5.05;;;3.28;;
52031;SDS011;38044;45.148;39.604;2023-05-10T05:19:52;5.82;;;3.60;;
52031;SDS011;38044;45.148;39.604;2023-05-10T05:22:18;4.35;;;3.75;;
52031;SDS011;38044;45.148;39.604;2023-05-10T05:24:52;5.97;;;3.35;;
52031;SDS011;38044;45.148;39.604;2023-05-10T05:27:19;3.25;;;2.78;;
52031;SDS011;38044;45.148;39.604;2023-05-10T05:29:56;5.30;;;2.70;;
52031;SDS011;38044;45.148;39.604;2023-05-10T05:32:22;3.47;;;3.17;;
52031;SDS011;38044;45.148;39.604;2023-05-10T05:34:49;3.45;;;3.00;;
52031;SDS011;38044;45.148;39.604;2023-05-10T05:37:16;3.08;;;2.42;;
52031;SDS011;38044;45.148;39.604;2023-05-10T05:39:43;2.88;;;2.40;;
52031;SDS011;38044;45.148;39.604;2023-05-10T05:42:09;1.85;;;1.70;;
52031;SDS011;38044;45.148;39.604;2023-05-10T05:44:36;2.17;;;1.33;;
52031;SDS011;38044;45.148;39.604;2023-05-10T05:47:02;1.40;;;1.25;;
52031;SDS011;38044;45.148;39.604;2023-05-10T05:49:28;1.08;;;1.00;;
52031;SDS011;38044;45.148;39.604;2023-05-10T05:51:54;2.00;;;1.33;;
52031;SDS011;38044;45.148;39.604;2023-05-10T05:54:20;2.50;;;1.20;;
52031;SDS011;38044;45.148;39.604;2023-05-10T05:56:45;2.30;;;0.80;;
52031;SDS011;38044;45.148;39.604;2023-05-10T05:59:11;1.35;;;0.88;;
52031;SDS011;38044;45.148;39.604;2023-05-10T06:01:37;1.23;;;0.80;;
52031;SDS011;38044;45.148;39.604;2023-05-10T06:04:02;1.23;;;0.77;;
52031;SDS011;38044;45.148;39.604;2023-05-10T06:06:28;1.40;;;0.55;;
52031;SDS011;38044;45.148;39.604;2023-05-10T06:08:54;2.13;;;0.70;;
52031;SDS011;38044;45.148;39.604;2023-05-10T06:11:20;1.42;;;0.70;;
52031;SDS011;38044;45.148;39.604;2023-05-10T06:13:46;1.17;;;0.50;;
52031;SDS011;38044;45.148;39.604;2023-05-10T06:16:12;0.98;;;0.82;;
52031;SDS011;38044;45.148;39.604;2023-05-10T06:18:38;1.02;;;0.85;;
52031;SDS011;38044;45.148;39.604;2023-05-10T06:21:04;1.10;;;0.90;;
52031;SDS011;38044;45.148;39.604;2023-05-10T06:23:30;1.35;;;1.00;;
52031;SDS011;38044;45.148;39.604;2023-05-10T06:25:56;2.28;;;1.00;;
52031;SDS011;38044;45.148;39.604;2023-05-10T06:28:22;1.42;;;1.05;;
52031;SDS011;38044;45.148;39.604;2023-05-10T06:30:47;1.30;;;1.20;;
52031;SDS011;38044;45.148;39.604;2023-05-10T06:33:13;2.00;;;1.30;;
52031;SDS011;38044;45.148;39.604;2023-05-10T06:35:39;2.97;;;1.20;;
52031;SDS011;38044;45.148;39.604;2023-05-10T06:38:05;1.65;;;1.42;;
52031;SDS011;38044;45.148;39.604;2023-05-10T06:40:30;1.40;;;1.30;;
52031;SDS011;38044;45.148;39.604;2023-05-10T06:42:56;1.52;;;1.42;;
52031;SDS011;38044;45.148;39.604;2023-05-10T06:45:22;1.83;;;1.60;;
52031;SDS011;38044;45.148;39.604;2023-05-10T06:47:48;2.47;;;1.40;;
52031;SDS011;38044;45.148;39.604;2023-05-10T06:50:14;1.85;;;1.60;;
52031;SDS011;38044;45.148;39.604;2023-05-10T06:52:40;2.05;;;1.55;;
52031;SDS011;38044;45.148;39.604;2023-05-10T06:55:06;2.30;;;1.60;;
52031;SDS011;38044;45.148;39.604;2023-05-10T06:57:32;2.72;;;1.38;;
52031;SDS011;38044;45.148;39.604;2023-05-10T06:59:58;1.75;;;1.50;;
52031;SDS011;38044;45.148;39.604;2023-05-10T07:02:24;2.13;;;1.63;;
52031;SDS011;38044;45.148;39.604;2023-05-10T07:04:50;1.67;;;1.45;;
52031;SDS011;38044;45.148;39.604;2023-05-10T07:07:17;1.58;;;1.30;;
52031;SDS011;38044;45.148;39.604;2023-05-10T07:09:42;1.40;;;1.30;;
52031;SDS011;38044;45.148;39.604;2023-05-10T07:12:08;1.42;;;1.25;;
52031;SDS011;38044;45.148;39.604;2023-05-10T07:14:35;2.50;;;1.60;;
52031;SDS011;38044;45.148;39.604;2023-05-10T07:17:00;2.80;;;1.75;;
52031;SDS011;38044;45.148;39.604;2023-05-10T07:19:26;2.55;;;2.10;;
52031;SDS011;38044;45.148;39.604;2023-05-10T07:21:52;4.25;;;2.00;;
52031;SDS011;38044;45.148;39.604;2023-05-10T07:24:18;2.88;;;2.10;;
52031;SDS011;38044;45.148;39.604;2023-05-10T07:26:44;2.63;;;2.22;;
52031;SDS011;38044;45.148;39.604;2023-05-10T07:29:09;1.90;;;1.70;;
52031;SDS011;38044;45.148;39.604;2023-05-10T07:31:35;3.00;;;1.90;;
52031;SDS011;38044;45.148;39.604;2023-05-10T07:34:01;3.38;;;2.35;;
52031;SDS011;38044;45.148;39.604;2023-05-10T07:36:27;5.40;;;2.75;;
52031;SDS011;38044;45.148;39.604;2023-05-10T07:38:53;2.28;;;1.98;;
52031;SDS011;38044;45.148;39.604;2023-05-10T07:41:19;2.60;;;1.45;;
52031;SDS011;38044;45.148;39.604;2023-05-10T07:43:46;2.70;;;1.58;;
52031;SDS011;38044;45.148;39.604;2023-05-10T07:46:11;1.63;;;1.40;;
52031;SDS011;38044;45.148;39.604;2023-05-10T07:48:37;1.88;;;1.30;;
52031;SDS011;38044;45.148;39.604;2023-05-10T07:51:03;1.45;;;1.35;;
52031;SDS011;38044;45.148;39.604;2023-05-10T07:53:29;3.75;;;1.50;;
52031;SDS011;38044;45.148;39.604;2023-05-10T07:55:57;3.58;;;2.55;;
52031;SDS011;38044;45.148;39.604;2023-05-10T07:58:23;3.40;;;2.40;;
52031;SDS011;38044;45.148;39.604;2023-05-10T08:00:50;5.05;;;2.08;;
52031;SDS011;38044;45.148;39.604;2023-05-10T08:03:16;4.68;;;2.85;;
52031;SDS011;38044;45.148;39.604;2023-05-10T08:05:41;5.47;;;2.90;;
52031;SDS011;38044;45.148;39.604;2023-05-10T08:08:07;5.85;;;3.40;;
52031;SDS011;38044;45.148;39.604;2023-05-10T08:10:33;4.35;;;2.75;;
52031;SDS011;38044;45.148;39.604;2023-05-10T08:12:59;5.65;;;3.60;;
52031;SDS011;38044;45.148;39.604;2023-05-10T08:15:25;15.10;;;7.40;;
52031;SDS011;38044;45.148;39.604;2023-05-10T08:17:51;14.68;;;7.22;;
52031;SDS011;38044;45.148;39.604;2023-05-10T08:20:17;6.15;;;3.70;;
52031;SDS011;38044;45.148;39.604;2023-05-10T08:22:47;5.25;;;4.05;;
52031;SDS011;38044;45.148;39.604;2023-05-10T08:25:12;6.05;;;3.30;;
52031;SDS011;38044;45.148;39.604;2023-05-10T08:27:38;5.25;;;3.20;;
52031;SDS011;38044;45.148;39.604;2023-05-10T08:30:04;5.63;;;3.53;;
52031;SDS011;38044;45.148;39.604;2023-05-10T08:32:31;4.93;;;3.60;;
52031;SDS011;38044;45.148;39.604;2023-05-10T08:34:56;4.10;;;3.30;;
52031;SDS011;38044;45.148;39.604;2023-05-10T08:37:23;4.40;;;3.38;;
52031;SDS011;38044;45.148;39.604;2023-05-10T08:39:49;5.30;;;2.92;;
52031;SDS011;38044;45.148;39.604;2023-05-10T08:42:16;5.28;;;2.92;;
52031;SDS011;38044;45.148;39.604;2023-05-10T08:44:48;4.55;;;2.75;;
52031;SDS011;38044;45.148;39.604;2023-05-10T08:47:15;3.50;;;2.40;;
52031;SDS011;38044;45.148;39.604;2023-05-10T08:49:43;5.05;;;2.33;;
52031;SDS011;38044;45.148;39.604;2023-05-10T08:52:13;4.15;;;2.42;;
52031;SDS011;38044;45.148;39.604;2023-05-10T08:54:41;4.57;;;3.38;;
52031;SDS011;38044;45.148;39.604;2023-05-10T08:57:08;2.70;;;2.33;;
52031;SDS011;38044;45.148;39.604;2023-05-10T08:59:33;7.25;;;2.10;;
52031;SDS011;38044;45.148;39.604;2023-05-10T09:01:59;2.42;;;2.08;;
52031;SDS011;38044;45.148;39.604;2023-05-10T09:04:27;3.40;;;2.00;;
52031;SDS011;38044;45.148;39.604;2023-05-10T09:06:56;2.55;;;1.70;;
52031;SDS011;38044;45.148;39.604;2023-05-10T09:09:22;2.40;;;1.70;;
52031;SDS011;38044;45.148;39.604;2023-05-10T09:11:49;2.00;;;1.50;;
52031;SDS011;38044;45.148;39.604;2023-05-10T09:14:14;1.60;;;1.50;;
52031;SDS011;38044;45.148;39.604;2023-05-10T09:16:41;2.38;;;1.60;;
52031;SDS011;38044;45.148;39.604;2023-05-10T09:19:07;6.00;;;1.50;;
52031;SDS011;38044;45.148;39.604;2023-05-10T09:21:34;4.10;;;1.58;;
52031;SDS011;38044;45.148;39.604;2023-05-10T09:24:07;2.85;;;1.48;;
52031;SDS011;38044;45.148;39.604;2023-05-10T09:26:34;2.25;;;1.73;;
52031;SDS011;38044;45.148;39.604;2023-05-10T09:29:01;4.68;;;2.65;;
52031;SDS011;38044;45.148;39.604;2023-05-10T09:34:28;3.08;;;2.78;;
52031;SDS011;38044;45.148;39.604;2023-05-10T09:36:56;4.82;;;4.43;;
52031;SDS011;38044;45.148;39.604;2023-05-10T09:41:57;6.88;;;4.88;;
52031;SDS011;38044;45.148;39.604;2023-05-10T09:44:25;2.92;;;2.20;;
52031;SDS011;38044;45.148;39.604;2023-05-10T09:46:51;3.75;;;1.73;;
52031;SDS011;38044;45.148;39.604;2023-05-10T09:49:18;3.22;;;1.42;;
52031;SDS011;38044;45.148;39.604;2023-05-10T09:51:45;3.65;;;1.40;;
52031;SDS011;38044;45.148;39.604;2023-05-10T09:54:15;1.60;;;1.10;;
52031;SDS011;38044;45.148;39.604;2023-05-10T09:56:42;2.60;;;1.30;;
52031;SDS011;38044;45.148;39.604;2023-05-10T09:59:10;2.58;;;1.30;;
52031;SDS011;38044;45.148;39.604;2023-05-10T10:01:37;1.73;;;1.30;;
52031;SDS011;38044;45.148;39.604;2023-05-10T10:04:07;1.63;;;1.30;;
52031;SDS011;38044;45.148;39.604;2023-05-10T10:06:35;2.13;;;1.10;;
52031;SDS011;38044;45.148;39.604;2023-05-10T10:09:05;1.23;;;1.02;;
52031;SDS011;38044;45.148;39.604;2023-05-10T10:11:40;2.67;;;1.20;;
52031;SDS011;38044;45.148;39.604;2023-05-10T10:14:06;2.47;;;1.20;;
52031;SDS011;38044;45.148;39.604;2023-05-10T10:16:32;1.38;;;1.10;;
52031;SDS011;38044;45.148;39.604;2023-05-10T10:18:58;1.48;;;1.20;;
52031;SDS011;38044;45.148;39.604;2023-05-10T10:21:24;2.95;;;1.42;;
52031;SDS011;38044;45.148;39.604;2023-05-10T10:23:50;3.13;;;1.90;;
52031;SDS011;38044;45.148;39.604;2023-05-10T10:26:18;2.38;;;1.25;;
52031;SDS011;38044;45.148;39.604;2023-05-10T10:34:25;2.65;;;1.00;;
52031;SDS011;38044;45.148;39.604;2023-05-10T10:36:56;2.42;;;1.10;;
52031;SDS011;38044;45.148;39.604;2023-05-10T10:39:23;1.45;;;1.10;;
52031;SDS011;38044;45.148;39.604;2023-05-10T10:41:53;3.25;;;1.17;;
52031;SDS011;38044;45.148;39.604;2023-05-10T10:47:03;2.55;;;1.33;;
52031;SDS011;38044;45.148;39.604;2023-05-10T10:49:36;1.52;;;0.85;;
52031;SDS011;38044;45.148;39.604;2023-05-10T10:52:14;3.42;;;1.30;;
52031;SDS011;38044;45.148;39.604;2023-05-10T10:54:41;1.45;;;1.10;;
52031;SDS011;38044;45.148;39.604;2023-05-10T10:57:12;1.73;;;1.00;;
52031;SDS011;38044;45.148;39.604;2023-05-10T10:59:43;1.23;;;1.00;;
52031;SDS011;38044;45.148;39.604;2023-05-10T11:02:09;2.47;;;1.40;;
52031;SDS011;38044;45.148;39.604;2023-05-10T11:04:42;1.33;;;1.00;;
52031;SDS011;38044;45.148;39.604;2023-05-10T11:07:18;3.25;;;1.08;;
52031;SDS011;38044;45.148;39.604;2023-05-10T11:09:46;1.40;;;0.60;;
52031;SDS011;38044;45.148;39.604;2023-05-10T11:12:12;2.03;;;1.00;;
52031;SDS011;38044;45.148;39.604;2023-05-10T11:14:39;1.00;;;0.90;;
52031;SDS011;38044;45.148;39.604;2023-05-10T11:20:09;1.17;;;1.00;;
52031;SDS011;38044;45.148;39.604;2023-05-10T11:22:51;1.50;;;0.90;;
52031;SDS011;38044;45.148;39.604;2023-05-10T11:25:18;3.08;;;1.20;;
52031;SDS011;38044;45.148;39.604;2023-05-10T11:27:45;2.00;;;1.40;;
52031;SDS011;38044;45.148;39.604;2023-05-10T11:30:13;1.27;;;1.08;;
52031;SDS011;38044;45.148;39.604;2023-05-10T11:32:40;2.33;;;1.05;;
52031;SDS011;38044;45.148;39.604;2023-05-10T11:35:06;2.88;;;1.00;;
52031;SDS011;38044;45.148;39.604;2023-05-10T11:37:33;1.92;;;1.00;;
52031;SDS011;38044;45.148;39.604;2023-05-10T11:39:59;2.53;;;1.20;;
52031;SDS011;38044;45.148;39.604;2023-05-10T11:42:25;1.55;;;0.95;;
52031;SDS011;38044;45.148;39.604;2023-05-10T11:44:52;3.50;;;1.20;;
52031;SDS011;38044;45.148;39.604;2023-05-10T11:47:18;1.45;;;1.00;;
52031;SDS011;38044;45.148;39.604;2023-05-10T11:49:44;1.23;;;1.08;;
52031;SDS011;38044;45.148;39.604;2023-05-10T11:52:11;2.55;;;1.20;;
52031;SDS011;38044;45.148;39.604;2023-05-10T11:54:37;2.45;;;1.00;;
52031;SDS011;38044;45.148;39.604;2023-05-10T11:57:03;2.00;;;1.33;;
52031;SDS011;38044;45.148;39.604;2023-05-10T11:59:29;2.42;;;1.10;;
52031;SDS011;38044;45.148;39.604;2023-05-10T12:01:55;4.72;;;1.30;;
52031;SDS011;38044;45.148;39.604;2023-05-10T12:04:20;1.70;;;1.20;;
52031;SDS011;38044;45.148;39.604;2023-05-10T12:06:47;2.13;;;0.90;;
52031;SDS011;38044;45.148;39.604;2023-05-10T12:09:13;2.33;;;1.02;;
52031;SDS011;38044;45.148;39.604;2023-05-10T12:11:40;4.13;;;1.20;;
52031;SDS011;38044;45.148;39.604;2023-05-10T12:14:06;1.98;;;1.10;;
52031;SDS011;38044;45.148;39.604;2023-05-10T12:16:33;4.18;;;1.40;;
52031;SDS011;38044;45.148;39.604;2023-05-10T12:18:59;2.97;;;1.60;;
52031;SDS011;38044;45.148;39.604;2023-05-10T12:21:26;1.60;;;1.30;;
52031;SDS011;38044;45.148;39.604;2023-05-10T12:23:56;7.70;;;3.30;;
52031;SDS011;38044;45.148;39.604;2023-05-10T12:26:25;4.03;;;1.83;;
52031;SDS011;38044;45.148;39.604;2023-05-10T12:28:53;6.03;;;3.60;;
52031;SDS011;38044;45.148;39.604;2023-05-10T12:31:19;6.88;;;5.20;;
52031;SDS011;38044;45.148;39.604;2023-05-10T12:33:45;3.47;;;2.15;;
52031;SDS011;38044;45.148;39.604;2023-05-10T12:36:13;2.00;;;1.55;;
52031;SDS011;38044;45.148;39.604;2023-05-10T12:38:45;4.20;;;1.33;;
52031;SDS011;38044;45.148;39.604;2023-05-10T12:41:15;1.77;;;1.30;;
52031;SDS011;38044;45.148;39.604;2023-05-10T12:43:43;3.70;;;1.35;;
52031;SDS011;38044;45.148;39.604;2023-05-10T12:46:10;1.80;;;1.20;;
52031;SDS011;38044;45.148;39.604;2023-05-10T12:48:38;2.47;;;1.30;;
52031;SDS011;38044;45.148;39.604;2023-05-10T12:51:05;3.17;;;1.45;;
52031;SDS011;38044;45.148;39.604;2023-05-10T12:53:34;3.97;;;1.60;;
52031;SDS011;38044;45.148;39.604;2023-05-10T12:56:01;1.73;;;1.48;;
52031;SDS011;38044;45.148;39.604;2023-05-10T12:58:27;1.92;;;1.25;;
52031;SDS011;38044;45.148;39.604;2023-05-10T13:00:53;3.33;;;1.60;;
52031;SDS011;38044;45.148;39.604;2023-05-10T13:03:19;2.67;;;1.40;;
52031;SDS011;38044;45.148;39.604;2023-05-10T13:05:45;2.33;;;1.65;;
52031;SDS011;38044;45.148;39.604;2023-05-10T13:08:11;4.43;;;1.52;;
52031;SDS011;38044;45.148;39.604;2023-05-10T13:10:36;1.98;;;1.30;;
52031;SDS011;38044;45.148;39.604;2023-05-10T13:13:02;6.00;;;1.92;;
52031;SDS011;38044;45.148;39.604;2023-05-10T13:15:28;1.90;;;1.50;;
52031;SDS011;38044;45.148;39.604;2023-05-10T13:17:54;2.92;;;1.75;;
52031;SDS011;38044;45.148;39.604;2023-05-10T13:20:20;2.88;;;1.63;;
52031;SDS011;38044;45.148;39.604;2023-05-10T13:22:46;1.60;;;1.30;;
52031;SDS011;38044;45.148;39.604;2023-05-10T13:25:12;3.03;;;1.60;;
52031;SDS011;38044;45.148;39.604;2023-05-10T13:27:41;2.10;;;1.63;;
52031;SDS011;38044;45.148;39.604;2023-05-10T13:30:07;2.95;;;1.88;;
52031;SDS011;38044;45.148;39.604;2023-05-10T13:32:34;4.53;;;1.33;;
52031;SDS011;38044;45.148;39.604;2023-05-10T13:35:00;2.65;;;1.40;;
52031;SDS011;38044;45.148;39.604;2023-05-10T13:37:28;1.75;;;1.58;;
52031;SDS011;38044;45.148;39.604;2023-05-10T13:39:55;3.42;;;1.98;;
52031;SDS011;38044;45.148;39.604;2023-05-10T13:42:21;4.55;;;3.72;;
52031;SDS011;38044;45.148;39.604;2023-05-10T13:44:48;2.70;;;2.10;;
52031;SDS011;38044;45.148;39.604;2023-05-10T13:47:17;3.17;;;1.58;;
52031;SDS011;38044;45.148;39.604;2023-05-10T13:49:43;3.67;;;1.73;;
52031;SDS011;38044;45.148;39.604;2023-05-10T13:52:08;1.90;;;1.50;;
52031;SDS011;38044;45.148;39.604;2023-05-10T13:54:37;2.22;;;1.50;;
52031;SDS011;38044;45.148;39.604;2023-05-10T13:57:03;1.67;;;1.40;;
52031;SDS011;38044;45.148;39.604;2023-05-10T13:59:29;2.65;;;1.60;;
52031;SDS011;38044;45.148;39.604;2023-05-10T14:01:59;3.42;;;1.40;;
52031;SDS011;38044;45.148;39.604;2023-05-10T14:04:27;2.08;;;1.40;;
52031;SDS011;38044;45.148;39.604;2023-05-10T14:06:54;2.85;;;1.40;;
52031;SDS011;38044;45.148;39.604;2023-05-10T14:09:20;2.92;;;1.20;;
52031;SDS011;38044;45.148;39.604;2023-05-10T14:11:46;2.35;;;1.45;;
52031;SDS011;38044;45.148;39.604;2023-05-10T14:14:12;3.17;;;1.90;;
52031;SDS011;38044;45.148;39.604;2023-05-10T14:16:41;2.55;;;1.50;;
52031;SDS011;38044;45.148;39.604;2023-05-10T14:19:08;2.38;;;1.63;;
52031;SDS011;38044;45.148;39.604;2023-05-10T14:21:33;3.63;;;1.70;;
52031;SDS011;38044;45.148;39.604;2023-05-10T14:23:59;1.88;;;1.40;;
52031;SDS011;38044;45.148;39.604;2023-05-10T14:26:25;2.55;;;1.40;;
52031;SDS011;38044;45.148;39.604;2023-05-10T14:28:52;1.70;;;1.30;;
52031;SDS011;38044;45.148;39.604;2023-05-10T14:31:18;3.25;;;1.50;;
52031;SDS011;38044;45.148;39.604;2023-05-10T14:33:48;2.13;;;1.60;;
52031;SDS011;38044;45.148;39.604;2023-05-10T14:36:14;3.17;;;1.52;;
52031;SDS011;38044;45.148;39.604;2023-05-10T14:38:40;2.45;;;1.55;;
52031;SDS011;38044;45.148;39.604;2023-05-10T14:41:06;3.47;;;1.50;;
52031;SDS011;38044;45.148;39.604;2023-05-10T14:43:32;3.50;;;1.48;;
52031;SDS011;38044;45.148;39.604;2023-05-10T14:45:58;3.50;;;1.65;;
52031;SDS011;38044;45.148;39.604;2023-05-10T14:48:24;2.38;;;1.40;;
52031;SDS011;38044;45.148;39.604;2023-05-10T14:50:49;6.15;;;1.55;;
52031;SDS011;38044;45.148;39.604;2023-05-10T14:53:17;3.40;;;1.52;;
52031;SDS011;38044;45.148;39.604;2023-05-10T14:55:43;1.73;;;1.30;;
52031;SDS011;38044;45.148;39.604;2023-05-10T14:58:09;3.40;;;1.63;;